sensor_id;sensor_type;location;lat;lon;timestamp;pressure;altitude;pressure_sealevel;temperature;humidity
57102;BME280;42982;54.558;18.508;2023-10-13T00:00:30;100609.16;;;10.42;nan
57102;BME280;42982;54.558;18.508;2023-10-13T00:01:36;100607.56;;;10.41;nan
57102;BME280;42982;54.558;18.508;2023-10-13T00:02:41;100604.88;;;10.41;nan
57102;BME280;42982;54.558;18.508;2023-10-13T00:03:44;100613.19;;;10.39;nan
57102;BME280;42982;54.558;18.508;2023-10-13T00:04:47;100608.34;;;10.36;nan
57102;BME280;42982;54.558;18.508;2023-10-13T00:05:51;100614.81;;;10.35;nan
57102;BME280;42982;54.558;18.508;2023-10-13T00:06:56;100608.91;;;10.33;nan
57102;BME280;42982;54.558;18.508;2023-10-13T00:08:03;100615.38;;;10.32;nan
57102;BME280;42982;54.558;18.508;2023-10-13T00:09:08;100607.56;;;10.31;nan
57102;BME280;42982;54.558;18.508;2023-10-13T00:10:16;100608.94;;;10.28;nan
57102;BME280;42982;54.558;18.508;2023-10-13T00:11:19;100616.22;;;10.28;nan
57102;BME280;42982;54.558;18.508;2023-10-13T00:12:26;100607.31;;;10.27;nan
57102;BME280;42982;54.558;18.508;2023-10-13T00:13:28;100611.09;;;10.26;nan
57102;BME280;42982;54.558;18.508;2023-10-13T00:14:32;100608.94;;;10.23;nan
57102;BME280;42982;54.558;18.508;2023-10-13T00:15:43;100613.22;;;10.24;nan
57102;BME280;42982;54.558;18.508;2023-10-13T00:17:02;100604.09;;;10.25;nan
57102;BME280;42982;54.558;18.508;2023-10-13T00:18:08;100608.16;;;10.28;nan
57102;BME280;42982;54.558;18.508;2023-10-13T00:19:31;100607.31;;;10.27;nan
57102;BME280;42982;54.558;18.508;2023-10-13T00:20:48;100605.19;;;10.29;nan
57102;BME280;42982;54.558;18.508;2023-10-13T00:22:09;100601.97;;;10.22;nan
57102;BME280;42982;54.558;18.508;2023-10-13T00:23:13;100608.66;;;10.25;nan
57102;BME280;42982;54.558;18.508;2023-10-13T00:24:18;100622.38;;;10.23;nan
57102;BME280;42982;54.558;18.508;2023-10-13T00:25:24;100617.53;;;10.25;nan
57102;BME280;42982;54.558;18.508;2023-10-13T00:26:33;100614.84;;;10.25;nan
57102;BME280;42982;54.558;18.508;2023-10-13T00:27:37;100619.16;;;10.26;nan
57102;BME280;42982;54.558;18.508;2023-10-13T00:28:42;100617.28;;;10.27;nan
57102;BME280;42982;54.558;18.508;2023-10-13T00:29:50;100613.78;;;10.26;nan
57102;BME280;42982;54.558;18.508;2023-10-13T00:30:52;100628.53;;;10.24;nan
57102;BME280;42982;54.558;18.508;2023-10-13T00:32:02;100629.09;;;10.20;nan
57102;BME280;42982;54.558;18.508;2023-10-13T00:33:12;100625.88;;;10.18;nan
57102;BME280;42982;54.558;18.508;2023-10-13T00:34:15;100630.72;;;10.16;nan
57102;BME280;42982;54.558;18.508;2023-10-13T00:35:30;100626.69;;;10.14;nan
57102;BME280;42982;54.558;18.508;2023-10-13T00:36:38;100624.00;;;10.14;nan
57102;BME280;42982;54.558;18.508;2023-10-13T00:38:11;100625.34;;;10.11;nan
57102;BME280;42982;54.558;18.508;2023-10-13T00:39:18;100621.06;;;10.10;nan
57102;BME280;42982;54.558;18.508;2023-10-13T00:40:20;100620.25;;;10.10;nan
57102;BME280;42982;54.558;18.508;2023-10-13T00:41:32;100618.91;;;10.12;nan
57102;BME280;42982;54.558;18.508;2023-10-13T00:42:53;100615.16;;;10.08;nan
57102;BME280;42982;54.558;18.508;2023-10-13T00:43:55;100613.00;;;10.10;nan
57102;BME280;42982;54.558;18.508;2023-10-13T00:45:17;100610.59;;;10.09;nan
57102;BME280;42982;54.558;18.508;2023-10-13T00:46:21;100619.72;;;10.08;nan
57102;BME280;42982;54.558;18.508;2023-10-13T00:47:32;100617.31;;;10.06;nan
57102;BME280;42982;54.558;18.508;2023-10-13T00:48:37;100612.50;;;10.03;nan
57102;BME280;42982;54.558;18.508;2023-10-13T00:49:56;100610.06;;;10.02;nan
57102;BME280;42982;54.558;18.508;2023-10-13T00:51:01;100608.47;;;9.95;nan
57102;BME280;42982;54.558;18.508;2023-10-13T00:52:07;100616.00;;;9.98;nan
57102;BME280;42982;54.558;18.508;2023-10-13T00:53:11;100620.81;;;10.02;nan
57102;BME280;42982;54.558;18.508;2023-10-13T00:54:13;100617.06;;;10.03;nan
57102;BME280;42982;54.558;18.508;2023-10-13T00:55:21;100616.53;;;10.01;nan
57102;BME280;42982;54.558;18.508;2023-10-13T00:56:27;100620.31;;;10.00;nan
57102;BME280;42982;54.558;18.508;2023-10-13T00:57:29;100614.94;;;10.00;nan
57102;BME280;42982;54.558;18.508;2023-10-13T00:58:35;100607.41;;;9.91;nan
57102;BME280;42982;54.558;18.508;2023-10-13T00:59:40;100613.34;;;9.93;nan
57102;BME280;42982;54.558;18.508;2023-10-13T01:00:44;100615.47;;;9.91;nan
57102;BME280;42982;54.558;18.508;2023-10-13T01:01:49;100619.25;;;9.90;nan
57102;BME280;42982;54.558;18.508;2023-10-13T01:02:56;100616.03;;;9.88;nan
57102;BME280;42982;54.558;18.508;2023-10-13T01:03:58;100621.94;;;9.85;nan
57102;BME280;42982;54.558;18.508;2023-10-13T01:05:02;100622.47;;;9.82;nan
57102;BME280;42982;54.558;18.508;2023-10-13T01:06:04;100622.47;;;9.82;nan
57102;BME280;42982;54.558;18.508;2023-10-13T01:07:09;100619.25;;;9.80;nan
57102;BME280;42982;54.558;18.508;2023-10-13T01:08:12;100616.03;;;9.78;nan
57102;BME280;42982;54.558;18.508;2023-10-13T01:09:16;100616.84;;;9.79;nan
57102;BME280;42982;54.558;18.508;2023-10-13T01:10:19;100616.03;;;9.78;nan
57102;BME280;42982;54.558;18.508;2023-10-13T01:11:29;100614.97;;;9.79;nan
57102;BME280;42982;54.558;18.508;2023-10-13T01:12:32;100619.25;;;9.80;nan
57102;BME280;42982;54.558;18.508;2023-10-13T01:13:34;100618.44;;;9.80;nan
57102;BME280;42982;54.558;18.508;2023-10-13T01:14:41;100610.94;;;9.82;nan
57102;BME280;42982;54.558;18.508;2023-10-13T01:15:45;100610.13;;;9.81;nan
57102;BME280;42982;54.558;18.508;2023-10-13T01:16:48;100612.81;;;9.81;nan
57102;BME280;42982;54.558;18.508;2023-10-13T01:17:53;100618.44;;;9.80;nan
57102;BME280;42982;54.558;18.508;2023-10-13T01:18:57;100608.00;;;9.73;nan
57102;BME280;42982;54.558;18.508;2023-10-13T01:20:07;100616.59;;;9.75;nan
57102;BME280;42982;54.558;18.508;2023-10-13T01:21:15;100620.63;;;9.72;nan
57102;BME280;42982;54.558;18.508;2023-10-13T01:22:23;100620.06;;;9.70;nan
57102;BME280;42982;54.558;18.508;2023-10-13T01:23:26;100620.91;;;9.71;nan
57102;BME280;42982;54.558;18.508;2023-10-13T01:24:30;100624.63;;;9.70;nan
57102;BME280;42982;54.558;18.508;2023-10-13T01:25:37;100621.16;;;9.69;nan
57102;BME280;42982;54.558;18.508;2023-10-13T01:26:41;100628.41;;;9.69;nan
57102;BME280;42982;54.558;18.508;2023-10-13T01:27:43;100623.03;;;9.69;nan
57102;BME280;42982;54.558;18.508;2023-10-13T01:28:51;100616.88;;;9.68;nan
57102;BME280;42982;54.558;18.508;2023-10-13T01:29:52;100622.50;;;9.72;nan
57102;BME280;42982;54.558;18.508;2023-10-13T01:30:59;100618.22;;;9.71;nan
57102;BME280;42982;54.558;18.508;2023-10-13T01:32:03;100630.81;;;9.70;nan
57102;BME280;42982;54.558;18.508;2023-10-13T01:33:05;100618.75;;;9.68;nan
57102;BME280;42982;54.558;18.508;2023-10-13T01:34:11;100616.63;;;9.65;nan
57102;BME280;42982;54.558;18.508;2023-10-13T01:35:13;100615.53;;;9.61;nan
57102;BME280;42982;54.558;18.508;2023-10-13T01:36:20;100623.06;;;9.59;nan
57102;BME280;42982;54.558;18.508;2023-10-13T01:37:26;100621.44;;;9.58;nan
57102;BME280;42982;54.558;18.508;2023-10-13T01:38:30;100613.66;;;9.56;nan
57102;BME280;42982;54.558;18.508;2023-10-13T01:39:36;100612.88;;;9.56;nan
57102;BME280;42982;54.558;18.508;2023-10-13T01:40:38;100617.41;;;9.55;nan
57102;BME280;42982;54.558;18.508;2023-10-13T01:41:40;100622.50;;;9.57;nan
57102;BME280;42982;54.558;18.508;2023-10-13T01:42:41;100621.97;;;9.55;nan
57102;BME280;42982;54.558;18.508;2023-10-13T01:43:43;100618.22;;;9.56;nan
57102;BME280;42982;54.558;18.508;2023-10-13T01:44:48;100622.78;;;9.55;nan
57102;BME280;42982;54.558;18.508;2023-10-13T01:45:50;100623.59;;;9.56;nan
57102;BME280;42982;54.558;18.508;2023-10-13T01:46:51;100630.03;;;9.55;nan
57102;BME280;42982;54.558;18.508;2023-10-13T01:47:53;100621.97;;;9.55;nan
57102;BME280;42982;54.558;18.508;2023-10-13T01:48:54;100624.94;;;9.53;nan
57102;BME280;42982;54.558;18.508;2023-10-13T01:49:58;100623.59;;;9.50;nan
57102;BME280;42982;54.558;18.508;2023-10-13T01:51:10;100630.84;;;9.50;nan
57102;BME280;42982;54.558;18.508;2023-10-13T01:52:12;100634.31;;;9.45;nan
57102;BME280;42982;54.558;18.508;2023-10-13T01:53:16;100633.78;;;9.43;nan
57102;BME280;42982;54.558;18.508;2023-10-13T01:54:24;100625.47;;;9.40;nan
57102;BME280;42982;54.558;18.508;2023-10-13T01:55:25;100628.16;;;9.40;nan
57102;BME280;42982;54.558;18.508;2023-10-13T01:56:29;100627.88;;;9.36;nan
57102;BME280;42982;54.558;18.508;2023-10-13T01:57:33;100630.31;;;9.38;nan
57102;BME280;42982;54.558;18.508;2023-10-13T01:58:38;100632.19;;;9.37;nan
57102;BME280;42982;54.558;18.508;2023-10-13T01:59:49;100627.88;;;9.36;nan
57102;BME280;42982;54.558;18.508;2023-10-13T02:00:53;100626.81;;;9.37;nan
57102;BME280;42982;54.558;18.508;2023-10-13T02:02:00;100626.81;;;9.37;nan
57102;BME280;42982;54.558;18.508;2023-10-13T02:03:04;100626.03;;;9.37;nan
57102;BME280;42982;54.558;18.508;2023-10-13T02:04:08;100625.19;;;9.36;nan
57102;BME280;42982;54.558;18.508;2023-10-13T02:05:14;100627.63;;;9.38;nan
57102;BME280;42982;54.558;18.508;2023-10-13T02:06:18;100620.38;;;9.38;nan
57102;BME280;42982;54.558;18.508;2023-10-13T02:07:24;100626.81;;;9.37;nan
57102;BME280;42982;54.558;18.508;2023-10-13T02:08:34;100629.22;;;9.39;nan
57102;BME280;42982;54.558;18.508;2023-10-13T02:09:40;100619.81;;;9.36;nan
57102;BME280;42982;54.558;18.508;2023-10-13T02:10:44;100620.09;;;9.35;nan
57102;BME280;42982;54.558;18.508;2023-10-13T02:11:46;100624.69;;;9.34;nan
57102;BME280;42982;54.558;18.508;2023-10-13T02:12:56;100625.47;;;9.35;nan
57102;BME280;42982;54.558;18.508;2023-10-13T02:13:58;100633.25;;;9.36;nan
57102;BME280;42982;54.558;18.508;2023-10-13T02:15:01;100626.81;;;9.37;nan
57102;BME280;42982;54.558;18.508;2023-10-13T02:16:05;100631.66;;;9.40;nan
57102;BME280;42982;54.558;18.508;2023-10-13T02:17:08;100634.06;;;9.42;nan
57102;BME280;42982;54.558;18.508;2023-10-13T02:18:18;100631.91;;;9.44;nan
57102;BME280;42982;54.558;18.508;2023-10-13T02:19:29;100630.84;;;9.45;nan
57102;BME280;42982;54.558;18.508;2023-10-13T02:20:32;100636.19;;;9.45;nan
57102;BME280;42982;54.558;18.508;2023-10-13T02:21:44;100638.09;;;9.44;nan
57102;BME280;42982;54.558;18.508;2023-10-13T02:22:46;100637.28;;;9.44;nan
57102;BME280;42982;54.558;18.508;2023-10-13T02:23:51;100647.47;;;9.42;nan
57102;BME280;42982;54.558;18.508;2023-10-13T02:25:01;100638.63;;;9.41;nan
57102;BME280;42982;54.558;18.508;2023-10-13T02:26:08;100644.53;;;9.38;nan
57102;BME280;42982;54.558;18.508;2023-10-13T02:27:34;100643.72;;;9.38;nan
57102;BME280;42982;54.558;18.508;2023-10-13T02:28:41;100648.28;;;9.37;nan
57102;BME280;42982;54.558;18.508;2023-10-13T02:29:49;100639.69;;;9.35;nan
57102;BME280;42982;54.558;18.508;2023-10-13T02:30:50;100642.13;;;9.37;nan
57102;BME280;42982;54.558;18.508;2023-10-13T02:32:01;100649.88;;;9.38;nan
57102;BME280;42982;54.558;18.508;2023-10-13T02:33:05;100650.44;;;9.35;nan
57102;BME280;42982;54.558;18.508;2023-10-13T02:34:07;100654.72;;;9.36;nan
57102;BME280;42982;54.558;18.508;2023-10-13T02:35:10;100655.78;;;9.35;nan
57102;BME280;42982;54.558;18.508;2023-10-13T02:36:17;100650.97;;;9.37;nan
57102;BME280;42982;54.558;18.508;2023-10-13T02:37:23;100645.84;;;9.36;nan
57102;BME280;42982;54.558;18.508;2023-10-13T02:38:26;100650.44;;;9.35;nan
57102;BME280;42982;54.558;18.508;2023-10-13T02:39:31;100650.44;;;9.35;nan
57102;BME280;42982;54.558;18.508;2023-10-13T02:40:39;100655.78;;;9.35;nan
57102;BME280;42982;54.558;18.508;2023-10-13T02:41:44;100651.22;;;9.36;nan
57102;BME280;42982;54.558;18.508;2023-10-13T02:42:49;100648.03;;;9.34;nan
57102;BME280;42982;54.558;18.508;2023-10-13T02:43:51;100643.47;;;9.34;nan
57102;BME280;42982;54.558;18.508;2023-10-13T02:44:53;100645.06;;;9.35;nan
57102;BME280;42982;54.558;18.508;2023-10-13T02:45:58;100649.91;;;9.33;nan
57102;BME280;42982;54.558;18.508;2023-10-13T02:47:00;100648.28;;;9.32;nan
57102;BME280;42982;54.558;18.508;2023-10-13T02:48:03;100646.13;;;9.34;nan
57102;BME280;42982;54.558;18.508;2023-10-13T02:49:16;100648.28;;;9.32;nan
57102;BME280;42982;54.558;18.508;2023-10-13T02:50:20;100639.72;;;9.30;nan
57102;BME280;42982;54.558;18.508;2023-10-13T02:51:26;100645.31;;;9.28;nan
57102;BME280;42982;54.558;18.508;2023-10-13T02:52:37;100658.19;;;9.26;nan
57102;BME280;42982;54.558;18.508;2023-10-13T02:53:45;100661.97;;;9.25;nan
57102;BME280;42982;54.558;18.508;2023-10-13T02:54:50;100665.97;;;9.23;nan
57102;BME280;42982;54.558;18.508;2023-10-13T02:55:52;100653.88;;;9.20;nan
57102;BME280;42982;54.558;18.508;2023-10-13T02:56:56;100659.53;;;9.19;nan
57102;BME280;42982;54.558;18.508;2023-10-13T02:57:58;100659.78;;;9.17;nan
57102;BME280;42982;54.558;18.508;2023-10-13T02:59:00;100660.63;;;9.18;nan
57102;BME280;42982;54.558;18.508;2023-10-13T03:00:07;100648.25;;;9.17;nan
57102;BME280;42982;54.558;18.508;2023-10-13T03:01:19;100647.47;;;9.16;nan
57102;BME280;42982;54.558;18.508;2023-10-13T03:02:20;100644.25;;;9.14;nan
57102;BME280;42982;54.558;18.508;2023-10-13T03:03:26;100639.69;;;9.15;nan
57102;BME280;42982;54.558;18.508;2023-10-13T03:04:30;100637.53;;;9.17;nan
57102;BME280;42982;54.558;18.508;2023-10-13T03:05:35;100636.47;;;9.18;nan
57102;BME280;42982;54.558;18.508;2023-10-13T03:06:39;100641.84;;;9.18;nan
57102;BME280;42982;54.558;18.508;2023-10-13T03:07:41;100638.06;;;9.19;nan
57102;BME280;42982;54.558;18.508;2023-10-13T03:08:46;100648.25;;;9.17;nan
57102;BME280;42982;54.558;18.508;2023-10-13T03:09:48;100645.56;;;9.17;nan
57102;BME280;42982;54.558;18.508;2023-10-13T03:10:53;100645.31;;;9.13;nan
57102;BME280;42982;54.558;18.508;2023-10-13T03:11:55;100649.06;;;9.12;nan
57102;BME280;42982;54.558;18.508;2023-10-13T03:12:58;100647.72;;;9.10;nan
57102;BME280;42982;54.558;18.508;2023-10-13T03:14:00;100648.81;;;9.09;nan
57102;BME280;42982;54.558;18.508;2023-10-13T03:15:09;100651.47;;;9.09;nan
57102;BME280;42982;54.558;18.508;2023-10-13T03:16:23;100657.91;;;9.08;nan
57102;BME280;42982;54.558;18.508;2023-10-13T03:17:25;100658.97;;;9.07;nan
57102;BME280;42982;54.558;18.508;2023-10-13T03:18:36;100667.56;;;9.09;nan
57102;BME280;42982;54.558;18.508;2023-10-13T03:19:42;100655.22;;;9.08;nan
57102;BME280;42982;54.558;18.508;2023-10-13T03:20:47;100658.97;;;9.07;nan
57102;BME280;42982;54.558;18.508;2023-10-13T03:21:59;100658.97;;;9.07;nan
57102;BME280;42982;54.558;18.508;2023-10-13T03:23:10;100664.34;;;9.07;nan
57102;BME280;42982;54.558;18.508;2023-10-13T03:24:13;100658.72;;;9.08;nan
57102;BME280;42982;54.558;18.508;2023-10-13T03:25:17;100662.75;;;9.05;nan
57102;BME280;42982;54.558;18.508;2023-10-13T03:26:28;100663.78;;;9.04;nan
57102;BME280;42982;54.558;18.508;2023-10-13T03:27:30;100664.63;;;9.05;nan
57102;BME280;42982;54.558;18.508;2023-10-13T03:28:41;100666.47;;;9.04;nan
57102;BME280;42982;54.558;18.508;2023-10-13T03:29:43;100661.13;;;9.04;nan
57102;BME280;42982;54.558;18.508;2023-10-13T03:30:44;100666.47;;;9.04;nan
57102;BME280;42982;54.558;18.508;2023-10-13T03:31:47;100666.47;;;9.04;nan
57102;BME280;42982;54.558;18.508;2023-10-13T03:33:07;100671.84;;;9.04;nan
57102;BME280;42982;54.558;18.508;2023-10-13T03:34:12;100665.69;;;9.04;nan
57102;BME280;42982;54.558;18.508;2023-10-13T03:35:15;100670.50;;;9.02;nan
57102;BME280;42982;54.558;18.508;2023-10-13T03:36:26;100658.16;;;9.01;nan
57102;BME280;42982;54.558;18.508;2023-10-13T03:37:53;100663.28;;;9.02;nan
57102;BME280;42982;54.558;18.508;2023-10-13T03:38:55;100674.81;;;9.03;nan
57102;BME280;42982;54.558;18.508;2023-10-13T03:39:57;100667.84;;;9.02;nan
57102;BME280;42982;54.558;18.508;2023-10-13T03:41:00;100668.09;;;9.00;nan
57102;BME280;42982;54.558;18.508;2023-10-13T03:42:10;100666.47;;;8.94;nan
57102;BME280;42982;54.558;18.508;2023-10-13T03:43:21;100672.91;;;8.98;nan
57102;BME280;42982;54.558;18.508;2023-10-13T03:44:23;100676.13;;;9.00;nan
57102;BME280;42982;54.558;18.508;2023-10-13T03:45:34;100669.44;;;9.03;nan
57102;BME280;42982;54.558;18.508;2023-10-13T03:46:49;100664.88;;;9.03;nan
57102;BME280;42982;54.558;18.508;2023-10-13T03:47:55;100663.25;;;9.08;nan
57102;BME280;42982;54.558;18.508;2023-10-13T03:48:56;100661.13;;;9.10;nan
57102;BME280;42982;54.558;18.508;2023-10-13T03:50:05;100662.22;;;9.09;nan
57102;BME280;42982;54.558;18.508;2023-10-13T03:51:17;100661.66;;;9.07;nan
57102;BME280;42982;54.558;18.508;2023-10-13T03:52:19;100664.34;;;9.07;nan
57102;BME280;42982;54.558;18.508;2023-10-13T03:53:23;100667.31;;;9.05;nan
57102;BME280;42982;54.558;18.508;2023-10-13T03:54:27;100659.50;;;9.03;nan
57102;BME280;42982;54.558;18.508;2023-10-13T03:55:31;100653.34;;;9.03;nan
57102;BME280;42982;54.558;18.508;2023-10-13T03:56:35;100652.00;;;9.00;nan
57102;BME280;42982;54.558;18.508;2023-10-13T03:57:50;100654.41;;;8.97;nan
57102;BME280;42982;54.558;18.508;2023-10-13T03:58:56;100660.03;;;8.95;nan
57102;BME280;42982;54.558;18.508;2023-10-13T04:00:15;100663.25;;;8.92;nan
57102;BME280;42982;54.558;18.508;2023-10-13T04:01:24;100665.94;;;8.92;nan
57102;BME280;42982;54.558;18.508;2023-10-13T04:02:44;100667.00;;;8.91;nan
57102;BME280;42982;54.558;18.508;2023-10-13T04:03:54;100676.13;;;8.90;nan
57102;BME280;42982;54.558;18.508;2023-10-13T04:05:07;100677.72;;;8.91;nan
57102;BME280;42982;54.558;18.508;2023-10-13T04:06:13;100675.03;;;8.91;nan
57102;BME280;42982;54.558;18.508;2023-10-13T04:07:19;100673.16;;;8.92;nan
57102;BME280;42982;54.558;18.508;2023-10-13T04:08:29;100686.03;;;8.90;nan
57102;BME280;42982;54.558;18.508;2023-10-13T04:09:33;100688.72;;;8.90;nan
57102;BME280;42982;54.558;18.508;2023-10-13T04:10:35;100676.34;;;8.89;nan
57102;BME280;42982;54.558;18.508;2023-10-13T04:11:45;100676.63;;;8.87;nan
57102;BME280;42982;54.558;18.508;2023-10-13T04:13:06;100678.25;;;8.88;nan
57102;BME280;42982;54.558;18.508;2023-10-13T04:14:26;100678.25;;;8.88;nan
57102;BME280;42982;54.558;18.508;2023-10-13T04:15:47;100673.16;;;8.92;nan
57102;BME280;42982;54.558;18.508;2023-10-13T04:17:08;100665.66;;;8.94;nan
57102;BME280;42982;54.558;18.508;2023-10-13T04:18:16;100662.97;;;8.94;nan
57102;BME280;42982;54.558;18.508;2023-10-13T04:19:56;100657.59;;;8.89;nan
57102;BME280;42982;54.558;18.508;2023-10-13T04:21:23;100656.25;;;8.91;nan
57102;BME280;42982;54.558;18.508;2023-10-13T04:22:41;100638.03;;;8.88;nan
57102;BME280;42982;54.558;18.508;2023-10-13T04:23:51;100649.81;;;8.87;nan
57102;BME280;42982;54.558;18.508;2023-10-13T04:25:27;100650.88;;;8.81;nan
57102;BME280;42982;54.558;18.508;2023-10-13T04:26:47;100656.25;;;8.81;nan
57102;BME280;42982;54.558;18.508;2023-10-13T04:29:19;100661.88;;;8.85;nan
57102;BME280;42982;54.558;18.508;2023-10-13T04:30:41;100655.72;;;8.84;nan
57102;BME280;42982;54.558;18.508;2023-10-13T04:31:58;100659.47;;;8.83;nan
57102;BME280;42982;54.558;18.508;2023-10-13T04:33:04;100651.69;;;8.81;nan
57102;BME280;42982;54.558;18.508;2023-10-13T04:34:29;100644.72;;;8.80;nan
57102;BME280;42982;54.558;18.508;2023-10-13T04:35:39;100646.59;;;8.80;nan
57102;BME280;42982;54.558;18.508;2023-10-13T04:36:48;100640.41;;;8.74;nan
57102;BME280;42982;54.558;18.508;2023-10-13T04:37:56;100649.78;;;8.72;nan
57102;BME280;42982;54.558;18.508;2023-10-13T04:39:04;100641.75;;;8.72;nan
57102;BME280;42982;54.558;18.508;2023-10-13T04:40:09;100647.09;;;8.72;nan
57102;BME280;42982;54.558;18.508;2023-10-13T04:41:11;100654.06;;;8.73;nan
57102;BME280;42982;54.558;18.508;2023-10-13T04:42:23;100665.34;;;8.75;nan
57102;BME280;42982;54.558;18.508;2023-10-13T04:43:51;100657.56;;;8.78;nan
57102;BME280;42982;54.558;18.508;2023-10-13T04:45:13;100660.25;;;8.78;nan
57102;BME280;42982;54.558;18.508;2023-10-13T04:46:37;100656.50;;;8.79;nan
57102;BME280;42982;54.558;18.508;2023-10-13T04:47:48;100669.91;;;8.79;nan
57102;BME280;42982;54.558;18.508;2023-10-13T04:48:58;100664.25;;;8.76;nan
57102;BME280;42982;54.558;18.508;2023-10-13T04:50:11;100670.44;;;8.76;nan
57102;BME280;42982;54.558;18.508;2023-10-13T04:51:26;100668.03;;;8.75;nan
57102;BME280;42982;54.558;18.508;2023-10-13T04:52:59;100665.63;;;8.73;nan
57102;BME280;42982;54.558;18.508;2023-10-13T04:54:04;100668.03;;;8.75;nan
57102;BME280;42982;54.558;18.508;2023-10-13T04:55:33;100670.16;;;8.73;nan
57102;BME280;42982;54.558;18.508;2023-10-13T04:56:49;100662.38;;;8.71;nan
57102;BME280;42982;54.558;18.508;2023-10-13T04:58:00;100665.63;;;8.73;nan
57102;BME280;42982;54.558;18.508;2023-10-13T04:59:12;100673.13;;;8.76;nan
57102;BME280;42982;54.558;18.508;2023-10-13T05:00:36;100667.50;;;8.78;nan
57102;BME280;42982;54.558;18.508;2023-10-13T05:02:13;100665.38;;;8.80;nan
57102;BME280;42982;54.558;18.508;2023-10-13T05:03:35;100659.47;;;8.83;nan
57102;BME280;42982;54.558;18.508;2023-10-13T05:04:55;100663.50;;;8.91;nan
57102;BME280;42982;54.558;18.508;2023-10-13T05:06:12;100664.06;;;8.93;nan
57102;BME280;42982;54.558;18.508;2023-10-13T05:07:43;100669.16;;;8.89;nan
57102;BME280;42982;54.558;18.508;2023-10-13T05:09:03;100658.94;;;8.86;nan
57102;BME280;42982;54.558;18.508;2023-10-13T05:10:23;100653.59;;;8.86;nan
57102;BME280;42982;54.558;18.508;2023-10-13T05:11:43;100658.41;;;8.84;nan
57102;BME280;42982;54.558;18.508;2023-10-13T05:13:03;100657.84;;;8.82;nan
57102;BME280;42982;54.558;18.508;2023-10-13T05:14:26;100671.81;;;8.84;nan
57102;BME280;42982;54.558;18.508;2023-10-13T05:15:51;100662.69;;;8.85;nan
57102;BME280;42982;54.558;18.508;2023-10-13T05:17:11;100665.91;;;8.87;nan
57102;BME280;42982;54.558;18.508;2023-10-13T05:18:34;100666.19;;;8.91;nan
57102;BME280;42982;54.558;18.508;2023-10-13T05:19:56;100662.19;;;8.93;nan
57102;BME280;42982;54.558;18.508;2023-10-13T05:21:17;100662.97;;;8.94;nan
57102;BME280;42982;54.558;18.508;2023-10-13T05:22:37;100657.38;;;8.95;nan
57102;BME280;42982;54.558;18.508;2023-10-13T05:24:00;100658.97;;;8.96;nan
57102;BME280;42982;54.558;18.508;2023-10-13T05:25:20;100656.00;;;8.98;nan
57102;BME280;42982;54.558;18.508;2023-10-13T05:26:41;100654.41;;;8.97;nan
57102;BME280;42982;54.558;18.508;2023-10-13T05:28:01;100655.75;;;8.99;nan
57102;BME280;42982;54.558;18.508;2023-10-13T05:29:42;100654.44;;;9.02;nan
57102;BME280;42982;54.558;18.508;2023-10-13T05:31:02;100649.59;;;9.04;nan
57102;BME280;42982;54.558;18.508;2023-10-13T05:32:22;100647.69;;;9.04;nan
57102;BME280;42982;54.558;18.508;2023-10-13T05:33:42;100652.53;;;9.08;nan
57102;BME280;42982;54.558;18.508;2023-10-13T05:35:02;100648.78;;;9.14;nan
57102;BME280;42982;54.558;18.508;2023-10-13T05:36:23;100648.81;;;9.19;nan
57102;BME280;42982;54.558;18.508;2023-10-13T05:37:43;100650.69;;;9.23;nan
57102;BME280;42982;54.558;18.508;2023-10-13T05:39:07;100646.94;;;9.29;nan
57102;BME280;42982;54.558;18.508;2023-10-13T05:40:30;100635.66;;;9.33;nan
57102;BME280;42982;54.558;18.508;2023-10-13T05:41:50;100645.59;;;9.42;nan
57102;BME280;42982;54.558;18.508;2023-10-13T05:43:10;100643.44;;;9.44;nan
57102;BME280;42982;54.558;18.508;2023-10-13T05:44:30;100641.31;;;9.46;nan
57102;BME280;42982;54.558;18.508;2023-10-13T05:45:38;100651.78;;;9.53;nan
57102;BME280;42982;54.558;18.508;2023-10-13T05:46:58;100646.38;;;9.58;nan
57102;BME280;42982;54.558;18.508;2023-10-13T05:48:23;100643.97;;;9.67;nan
57102;BME280;42982;54.558;18.508;2023-10-13T05:49:42;100648.25;;;9.73;nan
57102;BME280;42982;54.558;18.508;2023-10-13T05:51:06;100655.25;;;9.79;nan
57102;BME280;42982;54.558;18.508;2023-10-13T05:52:26;100653.91;;;9.87;nan
57102;BME280;42982;54.558;18.508;2023-10-13T05:54:03;100653.06;;;10.02;nan
57102;BME280;42982;54.558;18.508;2023-10-13T05:55:18;100661.63;;;10.14;nan
57102;BME280;42982;54.558;18.508;2023-10-13T05:56:49;100651.66;;;10.19;nan
57102;BME280;42982;54.558;18.508;2023-10-13T05:58:09;100649.78;;;10.20;nan
57102;BME280;42982;54.558;18.508;2023-10-13T05:59:34;100656.78;;;10.31;nan
57102;BME280;42982;54.558;18.508;2023-10-13T06:00:55;100660.50;;;10.40;nan
57102;BME280;42982;54.558;18.508;2023-10-13T06:02:17;100665.34;;;10.38;nan
57102;BME280;42982;54.558;18.508;2023-10-13T06:03:36;100662.91;;;10.42;nan
57102;BME280;42982;54.558;18.508;2023-10-13T06:04:57;100660.22;;;10.47;nan
57102;BME280;42982;54.558;18.508;2023-10-13T06:06:18;100663.41;;;10.49;nan
57102;BME280;42982;54.558;18.508;2023-10-13T06:07:38;100668.78;;;10.59;nan
57102;BME280;42982;54.558;18.508;2023-10-13T06:09:00;100666.81;;;10.70;nan
57102;BME280;42982;54.558;18.508;2023-10-13T06:10:20;100671.03;;;10.86;nan
57102;BME280;42982;54.558;18.508;2023-10-13T06:11:40;100667.47;;;10.96;nan
57102;BME280;42982;54.558;18.508;2023-10-13T06:13:03;100672.00;;;11.06;nan
57102;BME280;42982;54.558;18.508;2023-10-13T06:14:23;100674.13;;;11.09;nan
57102;BME280;42982;54.558;18.508;2023-10-13T06:15:46;100667.41;;;11.06;nan
57102;BME280;42982;54.558;18.508;2023-10-13T06:17:06;100677.34;;;11.16;nan